createdAt,value
2017-08-17T00:01:01.002Z,90.30
2017-08-17T00:03:29.920Z,90.30
2017-08-17T00:05:58.776Z,90.30
2017-08-17T00:08:28.446Z,90.30
2017-08-17T00:10:57.338Z,90.30
2017-08-17T00:13:26.232Z,90.30
2017-08-17T00:15:55.137Z,90.20
2017-08-17T00:18:24.045Z,90.20
2017-08-17T00:20:52.939Z,90.10
2017-08-17T00:23:21.811Z,90.00
2017-08-17T00:25:50.711Z,90.00
2017-08-17T00:28:19.619Z,90.00
2017-08-17T00:30:48.508Z,90.00
2017-08-17T00:33:17.371Z,90.10
2017-08-17T00:35:46.270Z,90.10
2017-08-17T00:38:15.160Z,90.00
2017-08-17T00:40:44.053Z,90.00
2017-08-17T00:43:12.959Z,90.00
2017-08-17T00:45:41.849Z,90.00
2017-08-17T00:48:10.737Z,90.00
2017-08-17T00:50:39.628Z,90.10
2017-08-17T00:53:08.535Z,90.10
2017-08-17T00:55:38.210Z,90.10
2017-08-17T00:58:07.126Z,90.00
2017-08-17T01:00:36.019Z,89.90
2017-08-17T01:03:04.926Z,90.00
2017-08-17T01:05:33.920Z,90.00
2017-08-17T01:08:02.888Z,90.10
2017-08-17T01:10:31.785Z,90.00
2017-08-17T01:13:00.681Z,90.20
2017-08-17T01:15:28.908Z,90.30
2017-08-17T01:17:57.808Z,90.20
2017-08-17T01:20:26.020Z,90.10
2017-08-17T01:22:54.913Z,90.10
2017-08-17T01:25:23.125Z,90.10
2017-08-17T01:27:52.034Z,90.10
2017-08-17T01:30:20.251Z,90.20
2017-08-17T01:32:49.170Z,90.20
2017-08-17T01:35:18.834Z,90.60
2017-08-17T01:37:47.038Z,90.20
2017-08-17T01:40:15.596Z,90.20
2017-08-17T01:42:43.799Z,90.20
2017-08-17T01:45:12.013Z,90.30
2017-08-17T01:47:40.227Z,90.30
2017-08-17T01:50:09.135Z,90.30
2017-08-17T01:52:37.341Z,90.30
2017-08-17T01:55:05.544Z,90.20
2017-08-17T01:57:34.122Z,90.40
2017-08-17T02:00:02.341Z,90.40
2017-08-17T02:02:30.893Z,90.40
2017-08-17T02:04:59.802Z,90.30
2017-08-17T02:07:28.718Z,90.30
2017-08-17T02:09:57.626Z,90.30
2017-08-17T02:12:26.534Z,90.20
2017-08-17T02:14:55.438Z,90.20
2017-08-17T02:17:24.338Z,90.10
2017-08-17T02:19:53.237Z,90.10
2017-08-17T02:22:22.136Z,90.20
2017-08-17T02:24:51.042Z,90.30
2017-08-17T02:27:19.939Z,90.30
2017-08-17T02:29:48.858Z,90.30
2017-08-17T02:32:18.529Z,90.20
2017-08-17T02:34:47.442Z,90.20
2017-08-17T02:37:16.345Z,90.50
2017-08-17T02:39:45.216Z,90.50
2017-08-17T02:42:14.120Z,90.50
2017-08-17T02:44:43.026Z,90.40
2017-08-17T02:47:12.711Z,90.60
2017-08-17T02:49:41.627Z,90.50
2017-08-17T02:52:10.526Z,90.60
2017-08-17T02:54:40.199Z,90.50
2017-08-17T02:57:09.117Z,90.50
2017-08-17T02:59:38.025Z,90.50
2017-08-17T03:02:07.686Z,90.40
2017-08-17T03:04:36.599Z,90.40
2017-08-17T03:07:05.506Z,90.40
2017-08-17T03:09:34.395Z,90.40
2017-08-17T03:12:03.295Z,90.50
2017-08-17T03:14:32.973Z,90.70
2017-08-17T03:17:01.878Z,90.40
2017-08-17T03:19:30.787Z,90.40
2017-08-17T03:22:00.453Z,90.40
2017-08-17T03:24:29.379Z,90.30
2017-08-17T03:26:58.292Z,90.40
2017-08-17T03:29:27.967Z,90.40
2017-08-17T03:31:56.864Z,90.40
2017-08-17T03:34:25.767Z,90.50
2017-08-17T03:36:54.666Z,90.40
2017-08-17T03:39:24.350Z,90.70
2017-08-17T03:41:53.256Z,90.40
2017-08-17T03:44:22.126Z,90.50
2017-08-17T03:46:51.025Z,90.50
2017-08-17T03:49:19.929Z,90.40
2017-08-17T03:51:48.800Z,90.50
2017-08-17T03:54:17.711Z,90.40
2017-08-17T03:56:46.620Z,90.50
2017-08-17T03:59:16.284Z,90.40
2017-08-17T04:01:45.186Z,90.40
2017-08-17T04:04:14.059Z,90.30
2017-08-17T04:06:42.958Z,90.40
2017-08-17T04:09:11.853Z,90.30
2017-08-17T04:11:40.745Z,90.30
2017-08-17T04:14:09.620Z,90.20
2017-08-17T04:16:38.530Z,90.30
2017-08-17T04:19:07.428Z,90.20
2017-08-17T04:21:36.340Z,90.20
2017-08-17T04:24:05.249Z,90.10
2017-08-17T04:26:34.917Z,90.30
2017-08-17T04:29:03.821Z,90.20
2017-08-17T04:31:32.835Z,90.20
2017-08-17T04:36:39.789Z,90.10
2017-08-17T04:39:08.695Z,90.10
2017-08-17T04:41:37.598Z,90.10
2017-08-17T04:44:06.508Z,90.10
2017-08-17T04:46:35.422Z,90.10
2017-08-17T04:49:04.347Z,90.00
2017-08-17T04:51:34.378Z,89.90
2017-08-17T04:54:03.327Z,90.00
2017-08-17T04:56:49.898Z,90.10
2017-08-17T04:59:18.815Z,90.10
2017-08-17T05:01:48.494Z,90.00
2017-08-17T05:06:57.311Z,89.90
2017-08-17T05:09:26.215Z,89.80
2017-08-17T05:11:55.092Z,89.80
2017-08-17T05:14:23.811Z,89.70
2017-08-17T05:16:53.310Z,89.70
2017-08-17T05:19:21.896Z,89.60
2017-08-17T05:21:50.806Z,89.30
2017-08-17T05:24:19.714Z,89.40
2017-08-17T05:26:49.376Z,89.30
2017-08-17T05:29:18.268Z,89.30
2017-08-17T05:31:47.489Z,89.10
2017-08-17T05:34:16.386Z,89.00
2017-08-17T05:36:45.280Z,88.80
2017-08-17T05:39:14.179Z,88.70
2017-08-17T05:41:43.072Z,88.60
2017-08-17T05:44:11.973Z,88.70
2017-08-17T05:46:41.650Z,88.50
2017-08-17T05:49:12.455Z,88.50
2017-08-17T05:57:42.829Z,88.50
2017-08-17T06:00:19.437Z,88.30
2017-08-17T06:06:40.917Z,87.90
2017-08-17T06:12:04.341Z,87.30
2017-08-17T06:14:33.232Z,87.00
2017-08-17T06:17:01.828Z,86.90
2017-08-17T06:19:30.716Z,86.40
2017-08-17T06:21:59.602Z,86.10
2017-08-17T06:24:28.511Z,85.80
2017-08-17T06:26:57.413Z,85.70
2017-08-17T06:29:26.293Z,85.50
2017-08-17T06:31:55.146Z,85.10
2017-08-17T06:34:24.009Z,84.80
2017-08-17T06:36:52.847Z,84.60
2017-08-17T06:39:21.736Z,84.40
2017-08-17T06:41:50.618Z,84.10
2017-08-17T06:44:19.505Z,83.70
2017-08-17T06:46:48.390Z,83.50
2017-08-17T06:49:17.273Z,83.20
2017-08-17T06:51:46.115Z,83.10
2017-08-17T06:54:15.004Z,82.80
2017-08-17T06:56:43.869Z,82.50
2017-08-17T06:59:12.755Z,82.30
2017-08-17T07:01:41.646Z,82.00
2017-08-17T07:04:10.525Z,81.60
2017-08-17T07:06:39.405Z,81.40
2017-08-17T07:09:08.280Z,80.90
2017-08-17T07:11:37.130Z,80.60
2017-08-17T07:14:05.984Z,80.50
2017-08-17T07:16:35.617Z,80.00
2017-08-17T07:19:04.477Z,80.00
2017-08-17T07:21:34.133Z,79.50
2017-08-17T07:24:03.010Z,79.40
2017-08-17T07:26:31.911Z,78.90
2017-08-17T07:29:00.767Z,78.80
2017-08-17T07:31:30.404Z,78.40
2017-08-17T07:33:59.297Z,78.20
2017-08-17T07:36:28.194Z,78.00
2017-08-17T07:38:57.084Z,77.30
2017-08-17T07:41:25.973Z,76.90
2017-08-17T07:43:54.865Z,77.00
2017-08-17T07:46:23.706Z,76.50
2017-08-17T07:48:52.593Z,76.10
2017-08-17T07:51:20.784Z,75.90
2017-08-17T07:53:49.677Z,75.70
2017-08-17T07:56:17.882Z,75.40
2017-08-17T07:58:46.767Z,74.90
2017-08-17T08:01:15.620Z,74.00
2017-08-17T08:03:44.508Z,74.20
2017-08-17T08:06:13.049Z,73.90
2017-08-17T08:08:41.934Z,73.70
2017-08-17T08:11:10.931Z,73.30
2017-08-17T08:13:39.827Z,72.70
2017-08-17T08:16:08.722Z,72.30
2017-08-17T08:18:37.611Z,72.10
2017-08-17T08:21:06.491Z,71.70
2017-08-17T08:23:35.382Z,71.10
2017-08-17T08:26:04.260Z,70.70
2017-08-17T08:28:33.889Z,70.40
2017-08-17T08:31:02.741Z,70.30
2017-08-17T08:33:31.634Z,70.10
2017-08-17T08:36:01.263Z,69.30
2017-08-17T08:38:30.135Z,69.20
2017-08-17T08:40:59.033Z,69.00
2017-08-17T08:43:28.691Z,68.60
2017-08-17T08:45:57.573Z,68.30
2017-08-17T08:48:26.470Z,68.10
2017-08-17T08:50:55.362Z,67.50
2017-08-17T08:53:24.240Z,67.10
2017-08-17T08:55:53.137Z,66.50
2017-08-17T08:58:22.017Z,66.40
2017-08-17T09:00:50.909Z,65.90
2017-08-17T09:03:19.793Z,65.70
2017-08-17T09:05:48.685Z,65.20
2017-08-17T09:08:17.541Z,64.70
2017-08-17T09:10:46.420Z,64.10
2017-08-17T09:13:15.311Z,64.20
2017-08-17T09:15:44.165Z,64.00
2017-08-17T09:18:12.716Z,63.80
2017-08-17T09:20:42.361Z,62.50
2017-08-17T09:23:11.245Z,62.50
2017-08-17T09:25:40.104Z,62.50
2017-08-17T09:28:09.726Z,61.40
2017-08-17T09:30:39.383Z,61.00
2017-08-17T09:33:08.778Z,60.70
2017-08-17T09:35:37.393Z,60.60
2017-08-17T09:38:05.983Z,60.40
2017-08-17T09:40:34.596Z,60.00
2017-08-17T09:43:03.484Z,59.90
2017-08-17T09:45:32.105Z,59.20
2017-08-17T09:48:00.733Z,59.30
2017-08-17T09:50:29.364Z,58.60
2017-08-17T09:52:57.988Z,58.50
2017-08-17T09:55:26.628Z,58.00
2017-08-17T09:57:55.217Z,57.90
2017-08-17T10:00:23.847Z,57.20
2017-08-17T10:02:52.464Z,56.70
2017-08-17T10:05:22.122Z,55.90
2017-08-17T10:07:51.004Z,55.90
2017-08-17T10:10:19.897Z,56.00
2017-08-17T10:12:48.792Z,56.20
2017-08-17T10:15:17.669Z,55.50
2017-08-17T10:17:46.553Z,55.60
2017-08-17T10:20:15.429Z,55.40
2017-08-17T10:22:45.087Z,55.50
2017-08-17T10:25:13.968Z,55.50
2017-08-17T10:27:42.847Z,55.40
2017-08-17T10:30:11.737Z,55.40
2017-08-17T10:32:40.626Z,55.40
2017-08-17T10:35:09.526Z,55.50
2017-08-17T10:37:38.412Z,55.60
2017-08-17T10:40:07.301Z,55.50
2017-08-17T10:42:36.177Z,55.80
2017-08-17T10:45:05.081Z,56.40
2017-08-17T10:47:33.976Z,56.00
2017-08-17T10:50:02.874Z,55.80
2017-08-17T10:52:31.766Z,55.80
2017-08-17T10:55:00.662Z,55.80
2017-08-17T10:57:29.566Z,55.60
2017-08-17T10:59:58.444Z,55.40
2017-08-17T11:02:27.065Z,55.00
2017-08-17T11:04:55.944Z,55.00
2017-08-17T11:07:24.821Z,54.70
2017-08-17T11:09:53.451Z,54.40
2017-08-17T11:12:22.083Z,54.50
2017-08-17T11:14:50.977Z,54.60
2017-08-17T11:17:19.874Z,54.70
2017-08-17T11:19:48.463Z,54.90
2017-08-17T11:22:17.866Z,55.60
2017-08-17T11:24:46.484Z,55.00
2017-08-17T11:27:15.111Z,54.80
2017-08-17T11:29:43.993Z,54.60
2017-08-17T11:32:12.889Z,54.40
2017-08-17T11:34:41.776Z,54.20
2017-08-17T11:37:10.415Z,54.00
2017-08-17T11:39:39.020Z,54.00
2017-08-17T11:42:07.655Z,53.90
2017-08-17T11:44:36.278Z,53.10
2017-08-17T11:47:04.896Z,52.20
2017-08-17T11:49:33.520Z,51.50
2017-08-17T11:52:02.136Z,51.30
2017-08-17T11:54:30.768Z,50.80
2017-08-17T11:56:59.394Z,50.20
2017-08-17T11:59:28.744Z,49.30
2017-08-17T12:01:57.340Z,49.20
2017-08-17T12:04:25.951Z,48.70
2017-08-17T12:06:54.568Z,48.80
2017-08-17T12:09:23.163Z,48.30
2017-08-17T12:11:51.791Z,48.20
2017-08-17T12:14:20.412Z,47.90
2017-08-17T12:16:49.044Z,47.80
2017-08-17T12:19:17.683Z,47.40
2017-08-17T12:21:46.333Z,47.20
2017-08-17T12:24:14.954Z,47.50
2017-08-17T12:26:43.594Z,46.30
2017-08-17T12:29:12.221Z,46.30
2017-08-17T12:31:40.825Z,46.00
2017-08-17T12:34:09.445Z,45.40
2017-08-17T12:36:38.076Z,45.00
2017-08-17T12:39:06.739Z,44.60
2017-08-17T12:41:35.365Z,44.40
2017-08-17T12:44:03.990Z,44.20
2017-08-17T12:46:32.609Z,43.90
2017-08-17T12:49:02.010Z,44.70
2017-08-17T12:51:30.642Z,44.20
2017-08-17T12:53:59.274Z,43.70
2017-08-17T12:56:27.893Z,43.60
2017-08-17T12:58:56.504Z,43.60
2017-08-17T13:01:25.087Z,43.60
2017-08-17T13:03:53.716Z,43.00
2017-08-17T13:06:22.312Z,43.00
2017-08-17T13:08:51.692Z,43.50
2017-08-17T13:11:20.319Z,42.90
2017-08-17T13:13:48.940Z,42.80
2017-08-17T13:16:17.566Z,42.70
2017-08-17T13:18:46.964Z,41.70
2017-08-17T13:21:15.577Z,41.70
2017-08-17T13:23:44.217Z,41.30
2017-08-17T13:26:12.850Z,41.40
2017-08-17T13:28:41.469Z,41.40
2017-08-17T13:31:10.055Z,41.20
2017-08-17T13:33:38.673Z,41.10
2017-08-17T13:36:07.298Z,41.10
2017-08-17T13:38:35.916Z,41.20
2017-08-17T13:41:04.542Z,41.20
2017-08-17T13:43:33.934Z,42.10
2017-08-17T13:46:02.361Z,41.40
2017-08-17T13:48:30.962Z,41.60
2017-08-17T13:50:59.558Z,41.40
2017-08-17T13:53:28.141Z,41.60
2017-08-17T13:55:56.763Z,42.20
2017-08-17T13:58:25.967Z,42.80
2017-08-17T14:00:55.352Z,43.10
2017-08-17T14:03:23.946Z,43.10
2017-08-17T14:05:52.578Z,43.30
2017-08-17T14:08:21.204Z,43.50
2017-08-17T14:10:49.824Z,43.60
2017-08-17T14:13:19.176Z,43.80
2017-08-17T14:15:47.791Z,43.70
2017-08-17T14:18:16.423Z,44.00
2017-08-17T14:20:45.050Z,44.20
2017-08-17T14:23:13.690Z,44.30
2017-08-17T14:25:42.311Z,44.50
2017-08-17T14:28:10.933Z,44.80
2017-08-17T14:30:39.557Z,45.10
2017-08-17T14:33:08.181Z,45.50
2017-08-17T14:35:36.803Z,45.90
2017-08-17T14:38:05.441Z,45.90
2017-08-17T14:40:34.069Z,46.20
2017-08-17T14:43:02.699Z,46.30
2017-08-17T14:45:31.334Z,46.60
2017-08-17T14:47:59.949Z,46.70
2017-08-17T14:50:28.538Z,46.80
2017-08-17T14:52:57.171Z,47.00
2017-08-17T14:55:25.762Z,47.30
2017-08-17T14:57:55.121Z,47.90
2017-08-17T15:00:23.754Z,47.80
2017-08-17T15:02:52.450Z,48.10
2017-08-17T15:05:21.069Z,48.10
2017-08-17T15:07:49.692Z,48.10
2017-08-17T15:10:18.275Z,48.10
2017-08-17T15:12:46.905Z,48.20
2017-08-17T15:15:15.532Z,49.00
2017-08-17T15:17:44.127Z,48.50
2017-08-17T15:20:12.565Z,49.20
2017-08-17T15:22:41.196Z,48.70
2017-08-17T15:25:09.792Z,48.90
2017-08-17T15:27:38.391Z,48.70
2017-08-17T15:30:07.025Z,48.70
2017-08-17T15:32:35.662Z,48.80
2017-08-17T15:35:05.046Z,48.90
2017-08-17T15:37:33.651Z,48.90
2017-08-17T15:40:03.055Z,49.20
2017-08-17T15:42:32.432Z,49.30
2017-08-17T15:45:01.044Z,49.30
2017-08-17T15:47:30.437Z,49.80
2017-08-17T15:49:59.807Z,49.90
2017-08-17T15:52:28.398Z,49.80
2017-08-17T15:54:56.990Z,49.80
2017-08-17T15:57:25.616Z,50.00
2017-08-17T15:59:54.236Z,50.10
2017-08-17T16:02:22.549Z,50.30
2017-08-17T16:04:51.129Z,50.40
2017-08-17T16:07:19.768Z,50.60
2017-08-17T16:09:48.393Z,50.90
2017-08-17T16:12:16.988Z,51.10
2017-08-17T16:14:45.433Z,51.30
2017-08-17T16:17:14.061Z,51.50
2017-08-17T16:19:42.685Z,51.60
2017-08-17T16:22:11.310Z,51.80
2017-08-17T16:24:39.947Z,52.00
2017-08-17T16:27:08.532Z,52.10
2017-08-17T16:29:37.159Z,52.30
2017-08-17T16:32:05.790Z,52.40
2017-08-17T16:34:34.421Z,52.50
2017-08-17T16:37:03.040Z,52.70
2017-08-17T16:39:31.709Z,52.70
2017-08-17T16:42:00.329Z,52.90
2017-08-17T16:44:29.722Z,52.90
2017-08-17T16:46:58.311Z,52.90
2017-08-17T16:49:27.731Z,53.10
2017-08-17T16:51:56.348Z,53.00
2017-08-17T16:54:24.981Z,53.20
2017-08-17T16:57:12.783Z,53.20
2017-08-17T16:59:59.074Z,53.20
2017-08-17T17:05:22.776Z,53.50
2017-08-17T17:10:29.909Z,53.80
2017-08-17T17:12:59.314Z,53.60
2017-08-17T17:15:29.005Z,54.90
2017-08-17T17:17:57.625Z,54.40
2017-08-17T17:20:27.025Z,55.80
2017-08-17T17:22:56.423Z,55.50
2017-08-17T17:25:25.821Z,55.80
2017-08-17T17:27:55.218Z,55.90
2017-08-17T17:30:26.697Z,55.90
2017-08-17T17:32:55.825Z,56.20
2017-08-17T17:35:24.448Z,56.50
2017-08-17T17:37:53.091Z,56.70
2017-08-17T17:40:21.726Z,56.80
2017-08-17T17:42:50.624Z,57.10
2017-08-17T17:45:19.334Z,57.30
2017-08-17T17:47:47.971Z,57.50
2017-08-17T17:50:16.610Z,57.60
2017-08-17T17:52:45.207Z,57.90
2017-08-17T17:55:13.858Z,58.10
2017-08-17T17:57:43.241Z,58.40
2017-08-17T18:00:12.135Z,58.40
2017-08-17T18:02:40.762Z,58.60
2017-08-17T18:05:09.669Z,58.70
2017-08-17T18:07:38.387Z,58.80
2017-08-17T18:12:51.915Z,59.10
2017-08-17T18:15:21.794Z,59.20
2017-08-17T18:17:50.692Z,59.40
2017-08-17T18:20:19.592Z,59.60
2017-08-17T18:22:48.461Z,59.60
2017-08-17T18:25:17.371Z,59.80
2017-08-17T18:27:46.264Z,59.90
2017-08-17T18:30:15.126Z,59.90
2017-08-17T18:32:44.032Z,60.00
2017-08-17T18:35:12.897Z,60.80
2017-08-17T18:37:41.801Z,60.40
2017-08-17T18:40:10.715Z,60.40
2017-08-17T18:42:39.582Z,60.60
2017-08-17T18:45:08.500Z,60.70
2017-08-17T18:47:37.363Z,60.80
2017-08-17T18:50:06.273Z,60.90
2017-08-17T18:52:35.185Z,61.00
2017-08-17T18:55:05.526Z,61.10
2017-08-17T18:57:35.193Z,61.60
2017-08-17T19:00:04.114Z,61.60
2017-08-17T19:02:34.532Z,61.80
2017-08-17T19:05:03.442Z,61.70
2017-08-17T19:07:33.131Z,62.20
2017-08-17T19:10:02.003Z,62.20
2017-08-17T19:12:30.914Z,62.20
2017-08-17T19:14:59.821Z,62.40
2017-08-17T19:17:30.500Z,62.90
2017-08-17T19:19:59.552Z,62.10
2017-08-17T19:25:22.265Z,62.50
2017-08-17T19:33:47.537Z,63.10
2017-08-17T19:36:17.237Z,64.20
2017-08-17T19:38:46.146Z,63.30
2017-08-17T19:41:15.049Z,63.50
2017-08-17T19:43:44.234Z,63.70
2017-08-17T19:49:10.220Z,64.20
2017-08-17T19:51:39.120Z,64.20
2017-08-17T19:54:08.173Z,64.30
2017-08-17T19:56:42.221Z,64.40
2017-08-17T20:02:22.691Z,64.60
2017-08-17T20:04:52.357Z,64.90
2017-08-17T20:07:22.017Z,64.80
2017-08-17T20:09:59.607Z,64.90
2017-08-17T20:12:41.074Z,65.00
2017-08-17T20:15:09.977Z,64.90
2017-08-17T20:17:39.651Z,65.30
2017-08-17T20:20:08.556Z,65.10
2017-08-17T20:22:37.470Z,65.40
2017-08-17T20:25:06.388Z,65.40
2017-08-17T20:27:35.464Z,65.50
2017-08-17T20:30:04.710Z,65.60
2017-08-17T20:32:33.611Z,65.70
2017-08-17T20:35:02.524Z,65.60
2017-08-17T20:37:31.440Z,65.80
2017-08-17T20:40:00.350Z,66.00
2017-08-17T20:42:29.258Z,66.10
2017-08-17T20:44:58.179Z,66.10
2017-08-17T20:47:27.081Z,66.20
2017-08-17T20:49:56.019Z,66.30
2017-08-17T20:52:24.925Z,66.30
2017-08-17T20:54:53.830Z,66.40
2017-08-17T20:57:22.735Z,66.50
2017-08-17T20:59:51.646Z,66.60
2017-08-17T21:02:20.513Z,66.70
2017-08-17T21:04:49.381Z,66.60
2017-08-17T21:07:18.285Z,66.80
2017-08-17T21:09:47.164Z,66.80
2017-08-17T21:12:16.057Z,67.00
2017-08-17T21:14:44.936Z,67.00
2017-08-17T21:17:13.840Z,67.10
2017-08-17T21:19:42.758Z,67.10
2017-08-17T21:22:11.670Z,67.40
2017-08-17T21:24:40.568Z,67.40
2017-08-17T21:27:09.483Z,67.40
2017-08-17T21:29:39.149Z,68.40
2017-08-17T21:32:08.049Z,67.60
2017-08-17T21:34:36.966Z,67.80
2017-08-17T21:37:05.882Z,67.80
2017-08-17T21:39:35.567Z,67.90
2017-08-17T21:42:04.486Z,67.90
2017-08-17T21:47:10.118Z,68.30
2017-08-17T21:49:38.993Z,68.20
2017-08-17T21:52:08.012Z,68.40
2017-08-17T21:54:36.878Z,68.50
2017-08-17T21:57:05.764Z,68.60
2017-08-17T21:59:34.686Z,68.80
2017-08-17T22:02:03.599Z,68.80
2017-08-17T22:04:33.281Z,69.00
2017-08-17T22:07:02.240Z,68.90
2017-08-17T22:09:31.136Z,69.00
2017-08-17T22:12:00.042Z,69.10
2017-08-17T22:14:28.952Z,69.10
2017-08-17T22:16:57.826Z,69.10
2017-08-17T22:19:26.739Z,69.20
2017-08-17T22:21:55.606Z,69.30
2017-08-17T22:24:24.575Z,69.50
2017-08-17T22:26:53.473Z,69.50
2017-08-17T22:29:22.368Z,69.60
2017-08-17T22:31:51.279Z,69.90
2017-08-17T22:34:20.195Z,70.00
2017-08-17T22:36:49.051Z,70.10
2017-08-17T22:39:17.953Z,70.10
2017-08-17T22:41:46.866Z,70.20
2017-08-17T22:44:15.729Z,70.40
2017-08-17T22:46:44.593Z,70.40
2017-08-17T22:49:13.601Z,70.60
2017-08-17T22:51:42.514Z,70.80
2017-08-17T22:54:11.422Z,70.90
2017-08-17T22:56:40.337Z,71.00
2017-08-17T22:59:09.228Z,71.20
2017-08-17T23:01:38.899Z,72.20
2017-08-17T23:04:07.814Z,71.60
2017-08-17T23:06:36.679Z,71.90
2017-08-17T23:09:05.243Z,72.70
2017-08-17T23:11:34.154Z,72.30
2017-08-17T23:14:03.055Z,72.50
2017-08-17T23:16:32.025Z,72.50
2017-08-17T23:19:00.728Z,72.80
2017-08-17T23:21:29.642Z,73.10
2017-08-17T23:23:58.534Z,73.10
2017-08-17T23:26:27.415Z,73.20
2017-08-17T23:28:56.304Z,73.30
2017-08-17T23:31:25.219Z,73.30
2017-08-17T23:33:54.105Z,73.30
2017-08-17T23:36:23.019Z,73.30
2017-08-17T23:38:51.889Z,73.20
2017-08-17T23:41:20.754Z,73.30
2017-08-17T23:43:49.614Z,73.30
2017-08-17T23:46:18.513Z,73.40
2017-08-17T23:48:47.385Z,73.60
2017-08-17T23:51:17.063Z,73.80
2017-08-17T23:53:45.933Z,73.70
2017-08-17T23:56:14.829Z,74.00
2017-08-17T23:58:43.723Z,74.10
